createdAt,value
2022-10-21T00:01:44.856Z,4.07
2022-10-21T00:04:13.691Z,3.80
2022-10-21T00:06:42.054Z,3.50
2022-10-21T00:09:10.679Z,3.55
2022-10-21T00:11:39.139Z,3.63
2022-10-21T00:14:07.652Z,4.28
2022-10-21T00:16:38.195Z,3.55
2022-10-21T00:19:06.507Z,3.13
2022-10-21T00:21:36.977Z,3.10
2022-10-21T00:24:05.843Z,3.33
2022-10-21T00:26:37.655Z,3.53
2022-10-21T00:29:07.406Z,3.37
2022-10-21T00:31:37.271Z,3.22
2022-10-21T00:34:05.675Z,3.20
2022-10-21T00:36:34.221Z,3.05
2022-10-21T00:39:02.580Z,3.08
2022-10-21T00:41:31.092Z,2.88
2022-10-21T00:44:02.300Z,2.90
2022-10-21T00:46:45.056Z,3.33
2022-10-21T00:49:19.820Z,3.50
2022-10-21T00:51:51.463Z,3.10
2022-10-21T00:54:22.080Z,3.55
2022-10-21T00:56:52.737Z,3.80
2022-10-21T00:59:22.123Z,4.35
2022-10-21T01:01:52.361Z,4.00
2022-10-21T01:04:20.682Z,4.68
2022-10-21T01:06:49.468Z,4.50
2022-10-21T01:09:18.997Z,5.00
2022-10-21T01:11:49.532Z,4.55
2022-10-21T01:14:44.627Z,4.82
2022-10-21T01:17:43.669Z,5.25
2022-10-21T01:20:47.600Z,5.03
2022-10-21T01:23:32.074Z,5.32
2022-10-21T01:26:33.656Z,5.30
2022-10-21T01:29:27.356Z,5.95
2022-10-21T01:32:04.231Z,6.22
2022-10-21T01:34:42.055Z,6.10
2022-10-21T01:37:18.209Z,6.50
2022-10-21T01:39:53.087Z,6.32
2022-10-21T01:42:29.707Z,6.15
2022-10-21T01:45:04.855Z,5.78
2022-10-21T01:47:38.642Z,6.15
2022-10-21T01:52:40.098Z,5.80
2022-10-21T01:55:13.664Z,5.85
2022-10-21T01:57:47.772Z,6.22
2022-10-21T02:00:16.252Z,6.60
2022-10-21T02:02:48.935Z,6.00
2022-10-21T02:05:23.491Z,5.93
2022-10-21T02:07:52.256Z,5.10
2022-10-21T02:10:21.538Z,5.60
2022-10-21T02:12:52.074Z,6.28
2022-10-21T02:15:23.228Z,6.88
2022-10-21T02:20:46.272Z,5.70
2022-10-21T02:23:18.871Z,5.63
2022-10-21T02:25:50.219Z,5.75
2022-10-21T02:28:19.459Z,5.60
2022-10-21T02:30:59.530Z,5.40
2022-10-21T02:33:43.042Z,6.47
2022-10-21T02:36:15.801Z,5.63
2022-10-21T02:38:49.599Z,5.77
2022-10-21T02:43:52.338Z,5.90
2022-10-21T02:46:20.924Z,6.20
2022-10-21T02:48:50.822Z,6.30
2022-10-21T02:51:19.299Z,6.18
2022-10-21T02:53:47.671Z,6.90
2022-10-21T02:56:16.118Z,6.50
2022-10-21T02:58:44.527Z,7.53
2022-10-21T03:01:13.185Z,7.60
2022-10-21T03:03:41.684Z,6.65
2022-10-21T03:06:11.532Z,6.93
2022-10-21T03:08:40.110Z,6.25
2022-10-21T03:11:08.460Z,5.80
2022-10-21T03:13:36.907Z,6.18
2022-10-21T03:16:05.661Z,6.10
2022-10-21T03:18:33.987Z,6.25
2022-10-21T03:21:02.313Z,6.10
2022-10-21T03:23:32.231Z,6.05
2022-10-21T03:26:00.587Z,6.65
2022-10-21T03:28:30.589Z,6.53
2022-10-21T03:30:59.134Z,6.55
2022-10-21T03:33:27.458Z,7.15
2022-10-21T03:35:55.852Z,7.97
2022-10-21T03:38:24.359Z,7.90
2022-10-21T03:40:54.342Z,7.10
2022-10-21T03:43:22.703Z,7.18
2022-10-21T03:45:51.156Z,6.30
2022-10-21T03:48:20.053Z,7.22
2022-10-21T03:50:48.434Z,6.78
2022-10-21T03:53:30.805Z,6.68
2022-10-21T03:56:07.566Z,6.57
2022-10-21T03:58:35.962Z,6.63
2022-10-21T04:01:04.678Z,6.72
2022-10-21T04:03:33.042Z,6.68
2022-10-21T04:06:01.459Z,6.70
2022-10-21T04:08:29.861Z,7.90
2022-10-21T04:10:59.049Z,7.60
2022-10-21T04:13:28.887Z,8.07
2022-10-21T04:16:00.204Z,8.40
2022-10-21T04:18:29.023Z,8.65
2022-10-21T04:20:57.616Z,8.70
2022-10-21T04:23:26.013Z,8.70
2022-10-21T04:25:54.301Z,9.55
2022-10-21T04:28:22.782Z,8.73
2022-10-21T04:30:52.708Z,8.65
2022-10-21T04:33:21.147Z,9.55
2022-10-21T04:35:49.944Z,8.45
2022-10-21T04:38:18.496Z,8.05
2022-10-21T04:40:46.963Z,7.93
2022-10-21T04:43:15.333Z,7.85
2022-10-21T04:45:43.737Z,6.93
2022-10-21T04:48:14.092Z,7.35
2022-10-21T04:50:42.758Z,7.10
2022-10-21T04:53:11.165Z,6.50
2022-10-21T04:55:40.951Z,7.28
2022-10-21T04:58:09.444Z,7.03
2022-10-21T05:00:37.928Z,7.43
2022-10-21T05:03:06.239Z,8.50
2022-10-21T05:05:36.079Z,8.80
2022-10-21T05:08:07.013Z,10.20
2022-10-21T05:10:39.099Z,11.32
2022-10-21T05:13:07.549Z,10.63
2022-10-21T05:15:36.031Z,11.25
2022-10-21T05:18:04.629Z,10.85
2022-10-21T05:20:32.987Z,10.95
2022-10-21T05:23:04.027Z,10.18
2022-10-21T05:25:34.328Z,9.70
2022-10-21T05:28:03.089Z,9.80
2022-10-21T05:30:31.539Z,9.35
2022-10-21T05:33:00.143Z,9.00
2022-10-21T05:35:28.587Z,9.45
2022-10-21T05:37:56.907Z,9.95
2022-10-21T05:40:26.798Z,8.93
2022-10-21T05:42:55.258Z,10.32
2022-10-21T05:45:23.712Z,9.98
2022-10-21T05:47:52.111Z,9.60
2022-10-21T05:50:20.704Z,9.85
2022-10-21T05:52:49.026Z,9.38
2022-10-21T05:55:17.579Z,8.60
2022-10-21T05:57:47.392Z,10.15
2022-10-21T06:00:16.126Z,10.50
2022-10-21T06:02:44.551Z,10.27
2022-10-21T06:05:13.396Z,10.80
2022-10-21T06:07:41.880Z,8.63
2022-10-21T06:10:12.742Z,9.35
2022-10-21T06:12:41.311Z,10.75
2022-10-21T06:15:12.035Z,9.13
2022-10-21T06:17:41.027Z,9.23
2022-10-21T06:20:10.258Z,9.48
2022-10-21T06:22:38.648Z,9.10
2022-10-21T06:25:07.351Z,9.90
2022-10-21T06:27:36.034Z,9.70
2022-10-21T06:30:04.849Z,9.45
2022-10-21T06:32:36.195Z,9.40
2022-10-21T06:35:04.766Z,9.45
2022-10-21T06:37:33.243Z,8.65
2022-10-21T06:40:01.650Z,9.50
2022-10-21T06:42:30.016Z,9.60
2022-10-21T06:45:00.252Z,9.90
2022-10-21T06:47:29.073Z,10.35
2022-10-21T06:50:03.132Z,9.82
2022-10-21T06:52:32.311Z,10.30
2022-10-21T06:55:00.654Z,9.52
2022-10-21T06:57:29.097Z,10.48
2022-10-21T06:59:57.515Z,10.00
2022-10-21T07:02:25.992Z,10.48
2022-10-21T07:04:54.299Z,9.98
2022-10-21T07:07:24.184Z,10.20
2022-10-21T07:09:52.641Z,10.43
2022-10-21T07:12:21.139Z,9.82
2022-10-21T07:14:50.186Z,9.95
2022-10-21T07:17:18.753Z,9.40
2022-10-21T07:19:47.114Z,10.23
2022-10-21T07:22:15.637Z,9.50
2022-10-21T07:24:45.647Z,8.55
2022-10-21T07:27:13.971Z,8.85
2022-10-21T07:29:42.563Z,8.40
2022-10-21T07:32:11.063Z,8.02
2022-10-21T07:34:39.442Z,8.68
2022-10-21T07:37:07.791Z,8.38
2022-10-21T07:39:36.324Z,8.57
2022-10-21T07:42:06.163Z,8.15
2022-10-21T07:44:34.492Z,8.57
2022-10-21T07:47:02.971Z,8.02
2022-10-21T07:49:31.475Z,8.30
2022-10-21T07:51:59.859Z,9.20
2022-10-21T07:54:28.355Z,8.25
2022-10-21T07:56:56.884Z,8.15
2022-10-21T07:59:26.744Z,8.05
2022-10-21T08:01:55.111Z,9.00
2022-10-21T08:04:29.973Z,8.90
2022-10-21T08:06:58.959Z,9.55
2022-10-21T08:10:37.224Z,8.55
2022-10-21T08:13:05.707Z,8.25
2022-10-21T08:15:35.603Z,9.10
2022-10-21T08:18:03.975Z,8.80
2022-10-21T08:20:32.342Z,8.40
2022-10-21T08:23:00.732Z,8.00
2022-10-21T08:25:30.270Z,9.10
2022-10-21T08:27:58.620Z,8.77
2022-10-21T08:30:30.006Z,7.40
2022-10-21T08:33:00.981Z,7.97
2022-10-21T08:35:30.322Z,7.72
2022-10-21T08:37:58.932Z,7.85
2022-10-21T08:40:31.436Z,7.18
2022-10-21T08:43:09.375Z,8.05
2022-10-21T08:45:43.839Z,6.85
2022-10-21T08:48:18.251Z,7.38
2022-10-21T08:50:50.104Z,6.57
2022-10-21T08:53:23.916Z,6.55
2022-10-21T08:55:58.973Z,6.70
2022-10-21T08:58:27.708Z,7.30
2022-10-21T09:01:00.283Z,6.78
2022-10-21T09:03:40.024Z,7.07
2022-10-21T09:06:22.837Z,7.65
2022-10-21T09:09:14.775Z,7.68
2022-10-21T09:11:59.647Z,7.18
2022-10-21T09:15:08.822Z,7.85
2022-10-21T09:17:57.472Z,6.80
2022-10-21T09:20:43.280Z,7.32
2022-10-21T09:26:15.743Z,7.00
2022-10-21T09:28:45.032Z,7.15
2022-10-21T09:31:18.727Z,7.18
2022-10-21T09:36:26.107Z,7.10
2022-10-21T09:39:00.185Z,6.28
2022-10-21T09:41:34.112Z,6.25
2022-10-21T09:44:02.576Z,6.82
2022-10-21T09:46:31.451Z,6.40
2022-10-21T09:49:29.216Z,6.70
2022-10-21T09:51:51.006Z,6.35
2022-10-21T09:54:23.776Z,6.63
2022-10-21T09:56:58.591Z,7.30
2022-10-21T09:59:32.709Z,6.10
2022-10-21T10:02:08.413Z,5.28
2022-10-21T10:04:37.660Z,5.28
2022-10-21T10:07:28.011Z,5.60
2022-10-21T10:09:56.416Z,5.03
2022-10-21T10:12:26.358Z,4.22
2022-10-21T10:14:55.815Z,3.75
2022-10-21T10:17:30.241Z,2.85
2022-10-21T10:20:25.945Z,3.22
2022-10-21T10:23:19.377Z,3.00
2022-10-21T10:25:52.799Z,3.13
2022-10-21T10:28:26.195Z,3.08
2022-10-21T10:30:57.520Z,3.13
2022-10-21T10:33:29.681Z,2.90
2022-10-21T10:36:00.320Z,2.90
2022-10-21T10:38:33.126Z,2.30
2022-10-21T10:41:12.531Z,2.60
2022-10-21T10:43:47.083Z,2.53
2022-10-21T10:46:25.771Z,2.60
2022-10-21T10:48:55.707Z,2.63
2022-10-21T10:51:30.543Z,1.95
2022-10-21T10:54:17.876Z,2.90
2022-10-21T10:56:54.695Z,2.20
2022-10-21T10:59:32.069Z,1.90
2022-10-21T11:02:17.819Z,1.90
2022-10-21T11:05:00.322Z,1.88
2022-10-21T11:07:34.529Z,1.98
2022-10-21T11:10:08.717Z,2.20
2022-10-21T11:12:37.255Z,2.25
2022-10-21T11:15:08.532Z,2.08
2022-10-21T11:17:41.308Z,2.42
2022-10-21T11:20:18.096Z,2.40
2022-10-21T11:22:55.562Z,1.90
2022-10-21T11:25:35.066Z,1.95
2022-10-21T11:28:17.199Z,2.05
2022-10-21T11:31:01.544Z,1.90
2022-10-21T11:33:40.259Z,1.90
2022-10-21T11:36:17.632Z,2.00
2022-10-21T11:39:04.768Z,1.80
2022-10-21T11:41:39.371Z,2.20
2022-10-21T11:44:17.736Z,2.38
2022-10-21T11:46:57.227Z,2.40
2022-10-21T11:49:41.755Z,1.45
2022-10-21T11:52:21.156Z,2.88
2022-10-21T11:55:12.451Z,1.40
2022-10-21T11:57:53.491Z,1.55
2022-10-21T12:00:25.262Z,1.13
2022-10-21T12:03:17.682Z,1.55
2022-10-21T12:05:55.662Z,1.20
2022-10-21T12:08:28.871Z,1.15
2022-10-21T12:11:01.659Z,1.00
2022-10-21T12:13:34.678Z,1.00
2022-10-21T12:16:07.929Z,0.88
2022-10-21T12:18:43.983Z,1.10
2022-10-21T12:21:19.173Z,0.80
2022-10-21T12:23:51.995Z,1.00
2022-10-21T12:26:25.928Z,1.23
2022-10-21T12:29:04.163Z,1.23
2022-10-21T12:31:41.074Z,1.13
2022-10-21T12:34:12.046Z,1.30
2022-10-21T12:36:47.232Z,1.10
2022-10-21T12:39:39.606Z,1.33
2022-10-21T12:42:14.005Z,1.30
2022-10-21T12:44:47.311Z,1.40
2022-10-21T12:47:32.384Z,1.52
2022-10-21T12:50:26.341Z,1.40
2022-10-21T12:53:22.162Z,1.30
2022-10-21T12:55:53.344Z,1.90
2022-10-21T12:58:32.019Z,1.02
2022-10-21T13:01:03.573Z,0.98
2022-10-21T13:03:55.150Z,0.90
2022-10-21T13:06:57.701Z,0.80
2022-10-21T13:09:37.806Z,0.70
2022-10-21T13:12:17.114Z,0.65
2022-10-21T13:14:47.875Z,0.60
2022-10-21T13:17:49.754Z,0.60
2022-10-21T13:20:46.956Z,0.50
2022-10-21T13:23:34.216Z,0.50
2022-10-21T13:26:15.820Z,0.43
2022-10-21T13:28:57.025Z,0.50
2022-10-21T13:31:25.620Z,0.40
2022-10-21T13:33:56.830Z,0.40
2022-10-21T13:41:59.199Z,0.40
2022-10-21T13:44:32.344Z,0.50
2022-10-21T13:47:18.721Z,0.60
2022-10-21T13:49:53.388Z,0.50
2022-10-21T13:52:21.788Z,0.52
2022-10-21T13:54:59.334Z,0.40
2022-10-21T13:57:31.038Z,0.32
2022-10-21T14:00:03.398Z,0.40
2022-10-21T14:02:31.815Z,0.82
2022-10-21T14:05:01.961Z,0.57
2022-10-21T14:07:30.612Z,0.30
2022-10-21T14:10:00.098Z,0.70
2022-10-21T14:12:33.367Z,0.50
2022-10-21T14:15:07.959Z,0.40
2022-10-21T14:17:41.091Z,0.60
2022-10-21T14:20:17.616Z,0.68
2022-10-21T14:22:51.426Z,0.70
2022-10-21T14:25:20.590Z,0.60
2022-10-21T14:27:49.603Z,0.60
2022-10-21T14:30:21.486Z,0.70
2022-10-21T14:32:51.960Z,0.60
2022-10-21T14:35:28.051Z,0.80
2022-10-21T14:37:57.975Z,0.77
2022-10-21T14:40:32.160Z,0.70
2022-10-21T14:43:03.313Z,0.73
2022-10-21T14:45:34.341Z,0.85
2022-10-21T14:48:10.485Z,0.70
2022-10-21T14:50:42.696Z,0.70
2022-10-21T14:53:18.252Z,1.60
2022-10-21T14:55:49.453Z,0.88
2022-10-21T14:58:23.936Z,0.80
2022-10-21T15:00:57.533Z,0.90
2022-10-21T15:03:39.665Z,0.90
2022-10-21T15:06:16.488Z,0.70
2022-10-21T15:08:58.673Z,0.90
2022-10-21T15:11:42.127Z,0.80
2022-10-21T15:14:35.383Z,1.10
2022-10-21T15:17:10.007Z,1.15
2022-10-21T15:19:48.314Z,0.85
2022-10-21T15:22:25.748Z,0.82
2022-10-21T15:24:55.874Z,1.15
2022-10-21T15:27:29.364Z,1.02
2022-10-21T15:29:57.934Z,1.27
2022-10-21T15:32:30.322Z,1.15
2022-10-21T15:35:00.296Z,1.33
2022-10-21T15:37:30.311Z,1.00
2022-10-21T15:39:59.111Z,1.02
2022-10-21T15:42:27.471Z,1.42
2022-10-21T15:44:58.732Z,1.88
2022-10-21T15:47:27.227Z,1.00
2022-10-21T15:49:56.460Z,1.10
2022-10-21T15:52:25.087Z,1.10
2022-10-21T15:54:55.428Z,0.85
2022-10-21T15:57:24.656Z,1.25
2022-10-21T15:59:52.975Z,0.85
2022-10-21T16:02:21.306Z,1.00
2022-10-21T16:04:53.099Z,1.00
2022-10-21T16:07:24.211Z,0.82
2022-10-21T16:09:52.769Z,0.90
2022-10-21T16:12:23.485Z,0.75
2022-10-21T16:14:51.919Z,1.27
2022-10-21T16:17:20.793Z,1.17
2022-10-21T16:19:49.256Z,0.90
2022-10-21T16:22:22.411Z,0.70
2022-10-21T16:24:50.982Z,0.95
2022-10-21T16:27:31.355Z,0.80
2022-10-21T16:30:17.598Z,1.00
2022-10-21T16:32:45.976Z,0.90
2022-10-21T16:35:15.520Z,0.98
2022-10-21T16:37:44.686Z,1.00
2022-10-21T16:40:19.633Z,1.30
2022-10-21T16:42:48.189Z,1.08
2022-10-21T16:45:19.405Z,1.20
2022-10-21T16:47:52.969Z,1.00
2022-10-21T16:50:24.096Z,0.90
2022-10-21T16:52:52.951Z,1.00
2022-10-21T16:55:21.904Z,1.05
2022-10-21T16:57:50.351Z,1.02
2022-10-21T17:00:20.555Z,0.90
2022-10-21T17:02:51.526Z,1.30
2022-10-21T17:05:20.059Z,0.70
2022-10-21T17:07:48.790Z,1.13
2022-10-21T17:10:17.781Z,1.05
2022-10-21T17:12:46.231Z,1.10
2022-10-21T17:15:16.972Z,1.15
2022-10-21T17:17:47.010Z,1.20
2022-10-21T17:20:15.602Z,1.33
2022-10-21T17:22:44.131Z,0.95
2022-10-21T17:25:13.426Z,1.88
2022-10-21T17:27:42.260Z,1.33
2022-10-21T17:30:12.641Z,1.65
2022-10-21T17:35:18.805Z,1.30
2022-10-21T17:37:48.113Z,1.08
2022-10-21T17:40:19.222Z,1.23
2022-10-21T17:42:48.199Z,1.40
2022-10-21T17:45:17.858Z,1.23
2022-10-21T17:47:46.769Z,1.40
2022-10-21T17:50:18.646Z,1.45
2022-10-21T17:52:47.046Z,1.60
2022-10-21T17:55:15.479Z,1.50
2022-10-21T17:57:44.052Z,1.33
2022-10-21T18:00:14.062Z,1.30
2022-10-21T18:02:42.822Z,1.60
2022-10-21T18:05:11.690Z,1.30
2022-10-21T18:07:41.652Z,1.50
2022-10-21T18:10:10.811Z,1.85
2022-10-21T18:12:39.587Z,1.70
2022-10-21T18:15:09.068Z,1.42
2022-10-21T18:17:40.081Z,1.40
2022-10-21T18:20:10.423Z,1.80
2022-10-21T18:22:40.698Z,1.90
2022-10-21T18:25:10.062Z,2.17
2022-10-21T18:27:40.403Z,2.10
2022-10-21T18:30:09.860Z,2.45
2022-10-21T18:32:39.240Z,1.70
2022-10-21T18:35:10.612Z,1.58
2022-10-21T18:37:41.889Z,1.85
2022-10-21T18:40:12.009Z,1.58
2022-10-21T18:42:41.215Z,1.70
2022-10-21T18:45:10.760Z,1.70
2022-10-21T18:47:41.212Z,1.50
2022-10-21T18:50:11.102Z,1.48
2022-10-21T18:52:41.339Z,1.60
2022-10-21T18:55:10.840Z,1.70
2022-10-21T18:57:40.084Z,1.45
2022-10-21T19:00:10.615Z,2.85
2022-10-21T19:02:39.281Z,1.80
2022-10-21T19:05:08.359Z,1.38
2022-10-21T19:07:38.241Z,1.38
2022-10-21T19:10:09.504Z,1.27
2022-10-21T19:12:38.616Z,1.48
2022-10-21T19:15:08.457Z,1.35
2022-10-21T19:17:36.981Z,1.42
2022-10-21T19:20:06.069Z,1.38
2022-10-21T19:22:34.561Z,1.20
2022-10-21T19:25:03.099Z,1.20
2022-10-21T19:27:34.676Z,1.33
2022-10-21T19:30:03.347Z,1.20
2022-10-21T19:32:31.753Z,1.80
2022-10-21T19:35:00.143Z,1.20
2022-10-21T19:37:29.177Z,1.48
2022-10-21T19:39:58.253Z,1.50
2022-10-21T19:42:28.336Z,1.42
2022-10-21T19:45:00.003Z,1.30
2022-10-21T19:47:31.402Z,1.40
2022-10-21T19:50:00.427Z,1.75
2022-10-21T19:52:29.595Z,1.65
2022-10-21T19:54:58.146Z,1.50
2022-10-21T19:57:27.095Z,1.55
2022-10-21T19:59:56.054Z,1.23
2022-10-21T20:02:26.538Z,1.50
2022-10-21T20:04:54.991Z,1.60
2022-10-21T20:07:23.350Z,1.38
2022-10-21T20:09:53.354Z,1.75
2022-10-21T20:12:21.867Z,1.60
2022-10-21T20:14:50.477Z,1.80
2022-10-21T20:17:19.045Z,6.47
2022-10-21T20:19:52.266Z,3.35
2022-10-21T20:22:20.917Z,1.88
2022-10-21T20:24:53.097Z,2.90
2022-10-21T20:27:22.270Z,2.10
2022-10-21T20:29:51.270Z,3.15
2022-10-21T20:32:20.475Z,2.20
2022-10-21T20:34:50.352Z,2.30
2022-10-21T20:37:19.506Z,2.30
2022-10-21T20:39:48.275Z,2.10
2022-10-21T20:42:16.667Z,2.08
2022-10-21T20:47:14.432Z,2.28
2022-10-21T20:49:42.816Z,2.53
2022-10-21T20:52:12.696Z,1.90
2022-10-21T20:54:41.662Z,1.77
2022-10-21T20:57:10.112Z,1.85
2022-10-21T20:59:38.699Z,1.92
2022-10-21T21:02:08.160Z,2.10
2022-10-21T21:04:36.781Z,2.45
2022-10-21T21:07:05.148Z,2.30
2022-10-21T21:10:01.132Z,2.25
2022-10-21T21:12:23.724Z,1.75
2022-10-21T21:14:53.035Z,2.15
2022-10-21T21:17:22.251Z,2.50
2022-10-21T21:19:51.631Z,2.63
2022-10-21T21:22:21.527Z,2.03
2022-10-21T21:24:52.308Z,2.08
2022-10-21T21:27:20.872Z,1.90
2022-10-21T21:29:49.311Z,1.70
2022-10-21T21:32:19.131Z,1.60
2022-10-21T21:34:54.531Z,1.70
2022-10-21T21:37:23.519Z,1.70
2022-10-21T21:39:54.550Z,1.70
2022-10-21T21:42:23.278Z,1.80
2022-10-21T21:44:51.727Z,1.83
2022-10-21T21:47:20.303Z,1.70
2022-10-21T21:49:48.935Z,2.00
2022-10-21T21:52:17.452Z,2.22
2022-10-21T21:54:45.815Z,1.92
2022-10-21T21:57:27.187Z,1.33
2022-10-21T21:59:55.917Z,1.48
2022-10-21T22:02:24.555Z,1.63
2022-10-21T22:04:52.815Z,1.90
2022-10-21T22:07:21.235Z,1.60
2022-10-21T22:09:49.566Z,1.80
2022-10-21T22:12:22.954Z,1.58
2022-10-21T22:17:19.984Z,1.45
2022-10-21T22:19:51.684Z,1.85
2022-10-21T22:24:50.396Z,1.50
2022-10-21T22:27:20.484Z,1.63
2022-10-21T22:29:49.045Z,1.40
2022-10-21T22:32:18.071Z,1.42
2022-10-21T22:34:46.959Z,1.63
2022-10-21T22:37:15.695Z,1.75
2022-10-21T22:39:44.132Z,1.75
2022-10-21T22:42:12.567Z,1.50
2022-10-21T22:44:42.539Z,1.98
2022-10-21T22:47:10.860Z,1.63
2022-10-21T22:49:39.386Z,1.40
2022-10-21T22:52:08.160Z,1.60
2022-10-21T22:54:49.226Z,1.20
2022-10-21T22:57:18.191Z,1.40
2022-10-21T22:59:52.847Z,1.23
2022-10-21T23:02:21.602Z,1.40
2022-10-21T23:04:50.276Z,1.70
2022-10-21T23:07:18.619Z,2.03
2022-10-21T23:09:47.494Z,1.40
2022-10-21T23:12:16.132Z,5.80
2022-10-21T23:14:44.543Z,3.90
2022-10-21T23:17:14.498Z,1.98
2022-10-21T23:19:42.927Z,1.70
2022-10-21T23:22:12.139Z,1.98
2022-10-21T23:24:40.541Z,1.30
2022-10-21T23:27:08.978Z,1.38
2022-10-21T23:29:37.474Z,1.42
2022-10-21T23:32:06.274Z,2.00
2022-10-21T23:34:36.085Z,1.83
2022-10-21T23:37:04.638Z,1.80
2022-10-21T23:39:33.155Z,1.95
2022-10-21T23:42:01.572Z,1.40
2022-10-21T23:44:30.263Z,1.80
2022-10-21T23:46:58.969Z,1.83
2022-10-21T23:49:27.802Z,2.08
2022-10-21T23:51:58.389Z,2.78
2022-10-21T23:54:26.803Z,2.05
2022-10-21T23:56:55.280Z,2.45
2022-10-21T23:59:23.714Z,2.50
